Ana Sayfa
METAR-TAF:

METAR-TAF

Havaalanları :

Troy, Michigan, Amerika Birleşik Devletleri

Enlem: 42-32-35N, Boylam: 083-10-40W, yükseklik: 222 m

Güncel hava durumu gözlemi

Rapor saat 02:20 UTC de 24 dakika önce yapıldı.
Rüzgar kuzeydoğudan 7 kt
Sıcaklık 25°C
Nem 57%
Basınç 1015 hPa
Görüş mesafesi: 16.1 km
Açık gökyüzü

METAR: KVLL 180220Z AUTO 05007KT 10SM CLR 25/16 A2997 RMK AO2 T02450155

Saat: 22:44 (02:44 UTC)


TAF: eksik

4.000'den fazla havaalanı için hava durumu gözlemleri ve tahminleri (METAR ve TAF raporları).

Kullanılabilir istasyonlar harita üzerinde sarı ve kırmızı noktalarla gösterilir.

İstasyonun adını görmek için fareyi noktanın üzerinde gezdirin.

Sonrasında hava gözlem ve tahminlerini görmek için tıklayın.

Haritayı değiştirmek için: yaklaştırmak için siyah artı işaretli yeşil düğmeye ve uzaklaştırmak için de eksi işaretli düğmeye hızla tıklayın; bitişik haritalar için yeşil okları kullanın.


METAR-TAF: